Time;durP1;ratioP1;P1;durP2;ratioP2;P2;SDS_P1;SDS_P2;PMS_P1;PMS_P2;Temp;Humidity;BMP_temperature;BMP_pressure;BME280_temperature;BME280_humidity;BME280_pressure;Samples;Min_cycle;Max_cycle;Signal;HPM_P1;HPM_P2
2022/01/30 00:01:54;;;;;;;21.27;3.55;;;6.50;99.90;;;;;;5074379;28;20093;-72
2022/01/30 00:04:19;;;;;;;17.95;3.63;;;6.50;99.90;;;;;;5069897;28;20044;-72
2022/01/30 00:06:46;;;;;;;17.13;2.95;;;6.50;99.90;;;;;;5055099;28;20040;-73
2022/01/30 00:09:19;;;;;;;16.40;2.45;;;6.40;99.90;;;;;;5070255;28;20124;-72
2022/01/30 00:11:49;;;;;;;17.05;3.15;;;6.30;99.90;;;;;;5068237;28;20036;-73
2022/01/30 00:14:17;;;;;;;20.75;2.67;;;6.20;99.90;;;;;;5082906;28;20119;-72
2022/01/30 00:16:43;;;;;;;17.33;3.97;;;6.20;99.90;;;;;;5072599;28;20064;-72
2022/01/30 00:21:49;;;;;;;23.83;4.82;;;6.10;99.90;;;;;;5083254;28;20049;-72
2022/01/30 00:24:41;;;;;;;22.33;3.92;;;6.10;99.90;;;;;;5087611;28;20036;-73
2022/01/30 00:27:11;;;;;;;22.08;3.53;;;6.20;99.90;;;;;;5076424;28;20044;-72
2022/01/30 00:29:37;;;;;;;24.00;3.15;;;6.30;99.90;;;;;;5076209;28;20089;-72
2022/01/30 00:32:02;;;;;;;22.80;4.07;;;6.30;99.90;;;;;;5077798;28;20576;-72
2022/01/30 00:34:28;;;;;;;25.65;4.20;;;6.30;99.90;;;;;;5076664;28;20044;-72
2022/01/30 00:36:53;;;;;;;15.38;3.17;;;6.50;99.90;;;;;;5093943;28;20455;-73
2022/01/30 00:39:19;;;;;;;16.60;3.53;;;6.50;99.90;;;;;;5074119;28;20119;-72
2022/01/30 00:41:44;;;;;;;20.50;3.92;;;6.60;99.90;;;;;;5074374;28;20044;-72
2022/01/30 00:44:10;;;;;;;20.08;4.10;;;6.60;99.90;;;;;;5077137;28;20047;-72
2022/01/30 00:46:38;;;;;;;22.80;3.33;;;6.70;99.90;;;;;;5077216;28;20048;-72
2022/01/30 00:49:03;;;;;;;16.08;3.60;;;6.70;99.90;;;;;;5092589;28;20040;-73
2022/01/30 00:51:29;;;;;;;21.00;3.63;;;6.70;99.90;;;;;;5076290;28;20060;-72
2022/01/30 00:53:54;;;;;;;13.40;2.42;;;6.70;99.90;;;;;;5091357;28;20044;-73
2022/01/30 00:56:20;;;;;;;18.38;4.25;;;6.70;99.90;;;;;;5093744;28;20036;-72
2022/01/30 00:58:45;;;;;;;18.63;3.13;;;6.60;99.90;;;;;;5092929;28;20047;-72
2022/01/30 01:01:11;;;;;;;21.42;3.53;;;6.60;99.90;;;;;;5077467;28;20036;-72
2022/01/30 01:03:36;;;;;;;20.20;3.42;;;6.50;99.90;;;;;;5091883;28;20066;-72
2022/01/30 01:06:05;;;;;;;20.63;3.78;;;6.50;99.90;;;;;;5076582;28;20042;-72
2022/01/30 01:08:49;;;;;;;16.67;2.85;;;6.40;99.90;;;;;;5091705;28;20044;-72
2022/01/30 01:24:28;;;;;;;19.77;3.47;;;6.10;99.90;;;;;;5081731;28;20047;-72
2022/01/30 01:26:54;;;;;;;17.08;2.80;;;6.10;99.90;;;;;;5092361;28;20550;-72
2022/01/30 01:29:19;;;;;;;16.13;3.40;;;6.10;99.90;;;;;;5089424;28;20043;-72
2022/01/30 01:31:45;;;;;;;20.48;3.10;;;6.10;99.90;;;;;;5075433;28;20496;-72
2022/01/30 01:36:38;;;;;;;20.58;3.20;;;6.00;99.90;;;;;;5093544;28;20410;-73
2022/01/30 01:39:05;;;;;;;21.70;3.80;;;6.00;99.90;;;;;;5075167;28;20028;-72
2022/01/30 01:41:32;;;;;;;25.70;4.60;;;6.10;99.90;;;;;;5092549;28;20515;-72
2022/01/30 01:43:58;;;;;;;19.70;3.28;;;6.20;99.90;;;;;;5075112;28;20064;-72
2022/01/30 01:46:29;;;;;;;24.05;5.45;;;6.10;99.90;;;;;;5076291;28;20479;-73
2022/01/30 01:48:56;;;;;;;24.08;3.53;;;6.10;99.90;;;;;;5074275;28;20036;-72
2022/01/30 01:51:30;;;;;;;29.38;4.50;;;6.10;99.90;;;;;;5075773;28;20059;-72
2022/01/30 01:53:56;;;;;;;26.08;4.70;;;6.10;99.90;;;;;;5092015;28;20051;-72
2022/01/30 01:56:23;;;;;;;23.20;4.47;;;6.10;99.90;;;;;;5075569;28;20043;-72
2022/01/30 01:58:49;;;;;;;25.42;4.07;;;6.10;99.90;;;;;;5074803;28;20032;-72
2022/01/30 02:01:15;;;;;;;27.15;4.32;;;6.00;99.90;;;;;;5093107;28;20046;-72
2022/01/30 02:03:41;;;;;;;23.50;3.70;;;6.00;99.90;;;;;;5090675;28;20115;-72
2022/01/30 02:06:11;;;;;;;25.13;3.97;;;5.90;99.90;;;;;;5075835;28;20513;-72
2022/01/30 02:11:07;;;;;;;21.33;3.65;;;5.90;99.90;;;;;;5092209;28;20130;-72
2022/01/30 02:14:00;;;;;;;20.23;4.30;;;5.80;99.90;;;;;;5075416;28;20036;-72
2022/01/30 02:26:56;;;;;;;22.42;3.95;;;5.80;99.90;;;;;;5088855;28;20076;-72
2022/01/30 02:29:22;;;;;;;25.08;3.78;;;5.90;99.90;;;;;;5074471;28;20050;-72
2022/01/30 02:31:48;;;;;;;26.50;5.13;;;5.90;99.90;;;;;;5090010;28;20492;-72
2022/01/30 02:34:13;;;;;;;22.70;3.85;;;6.10;99.90;;;;;;5075644;28;20123;-72
2022/01/30 02:36:51;;;;;;;26.73;4.97;;;6.00;99.90;;;;;;5073734;28;20036;-72
2022/01/30 02:39:19;;;;;;;20.88;3.95;;;6.00;99.90;;;;;;5089438;28;20078;-72
2022/01/30 02:41:45;;;;;;;24.70;4.43;;;6.00;99.90;;;;;;5075197;28;20038;-72
2022/01/30 02:44:17;;;;;;;26.80;4.13;;;5.90;99.90;;;;;;5091395;28;20047;-72
2022/01/30 02:46:46;;;;;;;25.42;5.05;;;5.90;99.90;;;;;;5091783;28;20044;-72
2022/01/30 02:50:10;;;;;;;20.92;5.28;;;5.90;99.90;;;;;;5072639;28;20131;-72
2022/01/30 02:52:02;;;;;;;24.98;4.97;;;6.00;99.90;;;;;;5074173;28;20044;-72
2022/01/30 02:54:30;;;;;;;23.60;4.40;;;5.90;99.90;;;;;;5069847;28;20044;-72
2022/01/30 02:56:56;;;;;;;22.05;4.10;;;6.00;99.90;;;;;;5084548;28;20097;-72
2022/01/30 02:59:22;;;;;;;26.10;4.03;;;6.00;99.90;;;;;;5081481;28;20119;-72
2022/01/30 03:01:48;;;;;;;25.58;3.80;;;6.10;99.90;;;;;;5078002;28;20036;-72
2022/01/30 03:04:14;;;;;;;22.80;4.38;;;6.10;99.90;;;;;;5072657;28;20047;-72
2022/01/30 03:06:40;;;;;;;27.23;4.38;;;6.10;99.90;;;;;;5073545;28;20028;-72
2022/01/30 03:09:07;;;;;;;30.65;4.88;;;6.10;99.90;;;;;;5074788;28;20051;-73
2022/01/30 03:11:33;;;;;;;26.10;4.68;;;6.10;99.90;;;;;;5089965;28;20144;-72
2022/01/30 03:14:00;;;;;;;21.67;3.92;;;6.10;99.90;;;;;;5088968;28;20047;-72
2022/01/30 03:16:25;;;;;;;29.10;5.43;;;6.10;99.90;;;;;;5065699;28;20408;-72
2022/01/30 03:18:51;;;;;;;29.75;6.38;;;6.10;99.90;;;;;;5088562;28;20032;-72
2022/01/30 03:21:17;;;;;;;26.92;4.68;;;6.10;99.90;;;;;;5085905;28;20042;-72
2022/01/30 03:23:43;;;;;;;30.15;4.53;;;6.10;99.90;;;;;;5072771;28;20070;-72
2022/01/30 03:26:10;;;;;;;22.13;3.95;;;6.10;99.90;;;;;;5087314;28;20101;-72
2022/01/30 03:28:38;;;;;;;23.33;4.18;;;6.10;99.90;;;;;;5088805;28;20043;-72
2022/01/30 03:31:06;;;;;;;28.42;4.78;;;6.10;99.90;;;;;;5073646;28;20036;-72
2022/01/30 03:33:32;;;;;;;25.63;5.03;;;6.10;99.90;;;;;;5091448;28;20044;-72
2022/01/30 03:35:58;;;;;;;16.65;3.08;;;6.10;99.90;;;;;;5090515;28;20043;-72
2022/01/30 03:38:24;;;;;;;23.73;4.45;;;6.10;99.90;;;;;;5074738;28;20032;-72
2022/01/30 03:40:50;;;;;;;26.48;3.95;;;6.20;99.90;;;;;;5073743;28;20120;-72
2022/01/30 03:43:16;;;;;;;27.67;4.80;;;6.20;99.90;;;;;;5073613;28;20126;-73
2022/01/30 03:45:42;;;;;;;28.52;4.72;;;6.20;99.90;;;;;;5091641;28;20036;-73
2022/01/30 03:48:08;;;;;;;22.55;3.38;;;6.10;99.90;;;;;;5083721;28;20032;-72
2022/01/30 03:50:34;;;;;;;25.35;4.95;;;6.10;99.90;;;;;;5084984;28;20055;-72
2022/01/30 03:52:59;;;;;;;20.05;4.15;;;6.20;99.90;;;;;;5085996;28;20404;-72
2022/01/30 03:55:25;;;;;;;34.15;6.18;;;6.20;99.90;;;;;;5075173;28;20050;-72
2022/01/30 03:57:51;;;;;;;24.63;4.50;;;6.20;99.90;;;;;;5095398;28;20040;-73
2022/01/30 04:00:17;;;;;;;23.67;4.43;;;6.20;99.90;;;;;;5077376;28;20043;-72
2022/01/30 04:02:43;;;;;;;29.25;4.20;;;6.30;99.90;;;;;;5077260;28;20484;-72
2022/01/30 04:05:08;;;;;;;31.02;5.43;;;6.30;99.90;;;;;;5095260;28;20514;-73
2022/01/30 04:07:34;;;;;;;29.27;5.10;;;6.20;99.90;;;;;;5076864;28;20040;-73
2022/01/30 04:10:01;;;;;;;24.52;5.38;;;6.20;99.90;;;;;;5078399;28;20488;-73
2022/01/30 04:12:27;;;;;;;25.75;5.18;;;6.20;99.90;;;;;;5076958;28;20055;-72
2022/01/30 04:14:53;;;;;;;24.95;4.68;;;6.20;99.90;;;;;;5094265;28;20035;-72
2022/01/30 04:17:20;;;;;;;27.10;4.22;;;6.30;99.90;;;;;;5094053;28;20506;-72
2022/01/30 04:19:46;;;;;;;28.05;5.00;;;6.30;99.90;;;;;;5094269;28;20067;-72
2022/01/30 04:22:12;;;;;;;31.38;4.95;;;6.30;99.90;;;;;;5093920;28;20081;-72
2022/01/30 04:24:37;;;;;;;27.80;5.35;;;6.20;99.90;;;;;;5094286;28;20031;-72
2022/01/30 04:27:03;;;;;;;26.85;4.97;;;6.10;99.90;;;;;;5076921;28;20082;-72
2022/01/30 04:29:29;;;;;;;28.13;6.38;;;6.00;99.90;;;;;;5077442;28;20137;-72
2022/01/30 04:31:55;;;;;;;34.63;6.10;;;6.00;99.90;;;;;;5092067;28;20224;-72
2022/01/30 04:34:21;;;;;;;27.05;5.03;;;5.90;99.90;;;;;;5092088;28;20416;-72
2022/01/30 04:37:01;;;;;;;31.58;4.85;;;5.90;99.90;;;;;;5092448;28;20111;-72
2022/01/30 04:53:03;;;;;;;25.30;6.07;;;6.00;99.90;;;;;;5092991;28;20044;-73
2022/01/30 04:55:50;;;;;;;29.77;5.07;;;5.90;99.90;;;;;;5091449;28;20047;-72
2022/01/30 04:58:25;;;;;;;36.25;6.25;;;5.90;99.90;;;;;;5090426;28;20051;-72
2022/01/30 05:03:44;;;;;;;28.50;5.50;;;6.00;99.90;;;;;;5082445;28;20125;-73
2022/01/30 05:06:14;;;;;;;23.13;4.00;;;6.00;99.90;;;;;;5076494;28;20073;-72
2022/01/30 05:08:40;;;;;;;38.17;5.65;;;6.00;99.90;;;;;;5092783;28;20036;-72
2022/01/30 05:11:08;;;;;;;24.40;5.10;;;6.00;99.90;;;;;;5076981;28;20036;-72
2022/01/30 05:13:37;;;;;;;35.45;5.88;;;6.00;99.90;;;;;;5091730;28;20480;-72
2022/01/30 05:16:04;;;;;;;35.42;5.90;;;6.00;99.90;;;;;;5076210;28;20036;-72
2022/01/30 05:18:30;;;;;;;32.70;6.10;;;6.00;99.90;;;;;;5075309;28;20032;-72
2022/01/30 05:20:56;;;;;;;33.80;5.82;;;6.00;99.90;;;;;;5091922;28;20497;-72
2022/01/30 05:23:22;;;;;;;32.85;6.05;;;5.90;99.90;;;;;;5075206;28;20032;-72
2022/01/30 05:25:50;;;;;;;36.50;5.30;;;6.00;99.90;;;;;;5074697;28;20396;-73
2022/01/30 05:28:17;;;;;;;28.13;5.43;;;6.00;99.90;;;;;;5075613;28;20051;-72
2022/01/30 05:30:44;;;;;;;36.67;6.90;;;5.90;99.90;;;;;;5074378;28;20035;-72
2022/01/30 05:33:10;;;;;;;30.08;5.35;;;5.90;99.90;;;;;;5075012;28;20036;-72
2022/01/30 05:35:36;;;;;;;36.10;6.28;;;5.90;99.90;;;;;;5090798;28;20090;-73
2022/01/30 05:38:03;;;;;;;29.98;6.88;;;5.90;99.90;;;;;;5075314;28;20032;-73
2022/01/30 05:40:30;;;;;;;31.00;5.45;;;6.00;99.90;;;;;;5092149;28;20035;-73
2022/01/30 05:42:55;;;;;;;32.97;4.68;;;5.90;99.90;;;;;;5091855;28;20044;-73
2022/01/30 05:45:32;;;;;;;30.45;5.57;;;5.90;99.90;;;;;;5089192;28;20046;-73
2022/01/30 05:48:03;;;;;;;29.58;5.93;;;5.90;99.90;;;;;;5075641;28;20125;-73
2022/01/30 05:50:29;;;;;;;29.23;4.63;;;5.80;99.90;;;;;;5090663;28;20553;-73
2022/01/30 05:52:55;;;;;;;33.05;5.82;;;5.80;99.90;;;;;;5085794;28;20055;-73
2022/01/30 05:55:21;;;;;;;25.95;5.40;;;5.80;99.90;;;;;;5090615;28;20039;-72
2022/01/30 05:57:47;;;;;;;31.08;5.65;;;5.90;99.90;;;;;;5074816;28;20032;-72
2022/01/30 06:00:15;;;;;;;35.65;6.00;;;5.90;99.90;;;;;;5073507;28;20040;-73
2022/01/30 06:02:46;;;;;;;34.70;6.45;;;5.90;99.90;;;;;;5092668;28;20028;-72
2022/01/30 06:05:15;;;;;;;38.65;6.32;;;5.90;99.90;;;;;;5090399;28;20032;-73
2022/01/30 06:07:55;;;;;;;30.80;6.47;;;6.00;99.90;;;;;;5073766;28;20484;-72
2022/01/30 06:10:23;;;;;;;30.88;5.88;;;6.00;99.90;;;;;;5074587;28;20044;-73
2022/01/30 06:12:49;;;;;;;29.92;6.65;;;6.00;99.90;;;;;;5090534;28;20063;-73
2022/01/30 06:15:15;;;;;;;34.65;7.22;;;6.00;99.90;;;;;;5072683;28;20507;-72
2022/01/30 06:17:42;;;;;;;41.30;7.40;;;6.00;99.90;;;;;;5091550;28;20036;-72
2022/01/30 06:20:08;;;;;;;37.67;6.50;;;6.00;99.90;;;;;;5088937;28;20048;-73
2022/01/30 06:22:34;;;;;;;41.03;6.82;;;6.00;99.90;;;;;;5090569;28;20427;-72
2022/01/30 06:25:00;;;;;;;36.08;6.50;;;6.00;99.90;;;;;;5073002;28;20040;-73
2022/01/30 06:27:25;;;;;;;40.33;6.93;;;6.00;99.90;;;;;;5089113;28;20043;-73
2022/01/30 06:29:51;;;;;;;34.00;6.50;;;6.00;99.90;;;;;;5073652;28;20036;-72
2022/01/30 06:32:17;;;;;;;35.53;8.18;;;6.00;99.90;;;;;;5073522;28;20040;-73
2022/01/30 06:34:43;;;;;;;31.73;6.28;;;6.10;99.90;;;;;;5073767;28;20127;-73
2022/01/30 06:37:08;;;;;;;32.55;6.28;;;6.10;99.90;;;;;;5074927;28;20038;-73
2022/01/30 06:39:34;;;;;;;31.30;6.28;;;6.00;99.90;;;;;;5073036;28;20032;-73
2022/01/30 06:42:00;;;;;;;32.38;6.45;;;5.90;99.90;;;;;;5090077;28;20036;-73
2022/01/30 06:44:25;;;;;;;31.65;6.00;;;5.90;99.90;;;;;;5091577;28;20048;-73
2022/01/30 06:46:51;;;;;;;32.70;7.05;;;5.90;99.90;;;;;;5085338;28;20032;-73
2022/01/30 06:49:16;;;;;;;32.65;6.05;;;5.90;99.90;;;;;;5088998;28;20044;-73
2022/01/30 06:51:42;;;;;;;34.88;7.07;;;5.90;99.90;;;;;;5089207;28;20052;-72
2022/01/30 06:54:08;;;;;;;33.50;6.57;;;6.00;99.90;;;;;;5072146;28;20047;-73
2022/01/30 06:56:33;;;;;;;35.67;6.95;;;5.90;99.90;;;;;;5088410;28;20585;-73
2022/01/30 06:58:59;;;;;;;29.77;6.32;;;5.90;99.90;;;;;;5089422;28;20050;-73
2022/01/30 07:01:25;;;;;;;37.90;6.38;;;5.90;99.90;;;;;;5073183;28;20492;-73
2022/01/30 07:03:52;;;;;;;30.73;5.93;;;5.90;99.90;;;;;;5089782;28;20047;-73
2022/01/30 07:06:18;;;;;;;38.20;6.88;;;5.90;99.90;;;;;;5073509;28;20036;-73
2022/01/30 07:08:43;;;;;;;33.33;5.70;;;5.90;99.90;;;;;;5069435;28;20059;-73
2022/01/30 07:11:09;;;;;;;29.85;5.70;;;6.00;99.90;;;;;;5088810;28;20117;-73
2022/01/30 07:13:34;;;;;;;37.88;6.10;;;6.00;99.90;;;;;;5069935;28;20037;-73
2022/01/30 07:16:00;;;;;;;31.63;6.65;;;6.00;99.90;;;;;;5080941;28;20047;-72
2022/01/30 07:18:26;;;;;;;29.40;5.85;;;6.00;99.90;;;;;;5089605;28;20040;-73
2022/01/30 07:20:51;;;;;;;37.33;6.90;;;6.10;99.90;;;;;;5089811;28;20488;-73
2022/01/30 07:23:17;;;;;;;28.73;6.18;;;6.10;99.90;;;;;;5089275;28;20345;-73
2022/01/30 07:25:44;;;;;;;38.58;6.07;;;6.00;99.90;;;;;;5089272;28;20139;-73
2022/01/30 07:28:10;;;;;;;33.53;6.20;;;6.00;99.90;;;;;;5072151;28;20051;-73
2022/01/30 07:30:36;;;;;;;33.22;5.75;;;6.00;99.90;;;;;;5072479;28;20094;-73
2022/01/30 07:33:03;;;;;;;38.58;6.80;;;6.00;99.90;;;;;;5071482;28;20040;-73
2022/01/30 07:35:29;;;;;;;33.30;6.07;;;6.00;99.90;;;;;;5073148;28;20119;-73
2022/01/30 07:37:55;;;;;;;38.55;6.22;;;6.00;99.90;;;;;;5068542;28;20118;-73
2022/01/30 07:40:21;;;;;;;33.03;5.70;;;6.00;99.90;;;;;;5089636;28;20064;-73
2022/01/30 07:42:47;;;;;;;31.27;7.13;;;6.00;99.90;;;;;;5072574;28;20090;-73
2022/01/30 07:45:12;;;;;;;37.25;5.78;;;6.00;99.90;;;;;;5073356;28;20032;-73
2022/01/30 07:47:38;;;;;;;36.42;6.60;;;6.00;99.90;;;;;;5089120;28;20036;-73
2022/01/30 07:50:04;;;;;;;35.38;5.93;;;5.90;99.90;;;;;;5087675;28;20055;-73
2022/01/30 07:52:30;;;;;;;35.00;6.07;;;5.90;99.90;;;;;;5087092;28;20075;-73
2022/01/30 07:54:56;;;;;;;27.67;4.07;;;6.00;99.90;;;;;;5084823;28;20080;-73
2022/01/30 07:57:22;;;;;;;30.83;6.45;;;6.10;99.90;;;;;;5059603;28;20032;-73
2022/01/30 07:59:48;;;;;;;25.65;5.03;;;6.00;99.90;;;;;;5090478;28;20036;-73
2022/01/30 08:02:14;;;;;;;28.17;5.20;;;6.00;99.90;;;;;;5090649;28;20028;-73
2022/01/30 08:04:39;;;;;;;27.67;5.82;;;6.00;99.50;;;;;;5090352;28;20410;-73
2022/01/30 08:07:06;;;;;;;24.60;4.22;;;6.00;99.20;;;;;;5073256;28;20126;-73
2022/01/30 08:09:31;;;;;;;30.17;4.88;;;6.10;99.80;;;;;;5072246;28;20036;-73
2022/01/30 08:11:57;;;;;;;25.30;4.45;;;6.00;97.70;;;;;;5073565;28;20050;-73
2022/01/30 08:14:23;;;;;;;22.60;4.07;;;6.00;96.30;;;;;;5089796;28;20047;-73
2022/01/30 08:16:49;;;;;;;27.80;5.28;;;6.00;96.60;;;;;;5073127;28;20493;-73
2022/01/30 08:19:15;;;;;;;27.58;5.28;;;6.00;96.60;;;;;;5090271;28;20067;-73
2022/01/30 08:21:41;;;;;;;29.65;5.50;;;6.00;98.20;;;;;;5090167;28;20047;-73
2022/01/30 08:24:06;;;;;;;32.88;5.93;;;6.00;98.60;;;;;;5072974;28;20032;-73
2022/01/30 08:26:32;;;;;;;20.30;4.53;;;6.00;96.30;;;;;;5090373;28;20097;-73
2022/01/30 08:28:57;;;;;;;30.20;5.60;;;6.00;98.30;;;;;;5088781;28;20041;-73
2022/01/30 08:31:23;;;;;;;29.65;4.90;;;6.00;99.30;;;;;;5073050;28;20051;-73
2022/01/30 08:33:49;;;;;;;26.80;4.75;;;6.00;96.50;;;;;;5088307;28;20055;-73
2022/01/30 08:36:14;;;;;;;26.40;4.90;;;6.00;98.90;;;;;;5070942;28;20025;-73
2022/01/30 08:38:40;;;;;;;23.02;4.25;;;6.00;98.30;;;;;;5093922;28;20040;-73
2022/01/30 08:41:05;;;;;;;31.15;6.28;;;6.00;99.40;;;;;;5075835;28;20404;-73
2022/01/30 08:43:31;;;;;;;28.45;5.30;;;6.00;98.60;;;;;;5092856;28;20511;-73
2022/01/30 08:45:59;;;;;;;33.10;5.20;;;6.00;99.10;;;;;;5092386;28;20395;-73
2022/01/30 08:48:25;;;;;;;37.15;5.82;;;6.00;99.90;;;;;;5075924;28;20378;-73
2022/01/30 08:50:51;;;;;;;37.10;6.63;;;6.00;99.90;;;;;;5074969;28;20067;-73
2022/01/30 08:53:17;;;;;;;35.53;6.18;;;6.00;99.90;;;;;;5087583;28;20044;-73
2022/01/30 08:55:43;;;;;;;29.98;5.60;;;6.00;99.90;;;;;;5073830;28;20032;-73
2022/01/30 08:58:09;;;;;;;34.65;5.82;;;6.00;99.90;;;;;;5075728;28;20032;-73
2022/01/30 09:00:40;;;;;;;24.02;4.57;;;6.00;99.90;;;;;;5091954;28;20190;-73
2022/01/30 09:03:07;;;;;;;30.05;5.15;;;6.10;99.90;;;;;;5067264;28;20131;-73
2022/01/30 09:05:33;;;;;;;34.28;6.35;;;6.10;99.90;;;;;;5075270;28;20047;-73
2022/01/30 09:08:04;;;;;;;33.63;6.18;;;6.20;99.90;;;;;;5072640;28;20039;-84
2022/01/30 09:10:33;;;;;;;36.10;6.05;;;6.30;99.90;;;;;;5074934;28;20085;-73
2022/01/30 09:12:58;;;;;;;33.65;6.07;;;6.30;99.90;;;;;;5091203;28;20093;-73
2022/01/30 09:15:24;;;;;;;36.38;6.22;;;6.30;99.90;;;;;;5093062;28;20039;-73
2022/01/30 09:17:52;;;;;;;36.15;5.78;;;6.30;99.90;;;;;;5092473;28;20032;-73
2022/01/30 09:20:18;;;;;;;32.38;5.53;;;6.20;99.90;;;;;;5075142;28;20036;-73
2022/01/30 09:22:44;;;;;;;32.30;5.90;;;6.20;99.90;;;;;;5092782;28;20032;-73
2022/01/30 09:25:10;;;;;;;34.67;6.38;;;6.20;99.90;;;;;;5090329;28;20066;-73
2022/01/30 09:27:35;;;;;;;32.30;6.00;;;6.20;99.90;;;;;;5075898;28;20048;-73
2022/01/30 09:30:02;;;;;;;40.03;6.47;;;6.30;99.90;;;;;;5092011;28;20028;-73
2022/01/30 09:32:28;;;;;;;36.28;6.10;;;6.40;99.90;;;;;;5091511;28;20203;-73
2022/01/30 09:34:53;;;;;;;37.53;6.75;;;6.40;99.80;;;;;;5073901;28;20072;-72
2022/01/30 09:37:19;;;;;;;34.42;6.30;;;6.50;99.90;;;;;;5074783;28;20082;-73
2022/01/30 09:39:44;;;;;;;31.45;6.78;;;6.40;99.90;;;;;;5074733;28;20160;-73
2022/01/30 09:42:10;;;;;;;33.72;5.38;;;6.40;99.60;;;;;;5091422;28;20047;-72
2022/01/30 09:44:40;;;;;;;34.45;6.80;;;6.40;99.50;;;;;;5085522;28;20174;-73
2022/01/30 09:47:10;;;;;;;40.33;6.47;;;6.50;99.90;;;;;;5077182;28;20538;-73
2022/01/30 09:49:39;;;;;;;30.55;5.60;;;6.50;97.60;;;;;;5089456;28;20138;-73
2022/01/30 09:52:06;;;;;;;31.17;5.68;;;6.60;98.60;;;;;;5091956;28;20047;-73
2022/01/30 09:54:32;;;;;;;32.88;6.45;;;6.60;98.20;;;;;;5092214;28;20044;-72
2022/01/30 09:56:58;;;;;;;26.13;4.78;;;6.60;96.70;;;;;;5090533;28;20032;-73
2022/01/30 09:59:23;;;;;;;27.25;5.00;;;6.60;97.10;;;;;;5091280;28;20036;-73
2022/01/30 10:01:49;;;;;;;33.63;5.38;;;6.60;96.10;;;;;;5090730;28;20193;-73
2022/01/30 10:04:14;;;;;;;36.40;5.57;;;6.70;96.20;;;;;;5072547;28;20766;-73
2022/01/30 10:07:09;;;;;;;31.17;5.25;;;6.80;96.90;;;;;;5074795;28;20398;-73
2022/01/30 10:09:37;;;;;;;28.95;5.53;;;6.80;97.60;;;;;;5091185;28;20028;-79
2022/01/30 10:12:30;;;;;;;24.00;5.25;;;6.80;99.90;;;;;;5090770;28;20067;-75
2022/01/30 10:15:02;;;;;;;30.88;5.32;;;6.90;96.20;;;;;;5070374;28;20050;-74
2022/01/30 10:17:28;;;;;;;30.88;5.18;;;7.00;96.00;;;;;;5090325;28;20074;-82
2022/01/30 10:20:21;;;;;;;34.35;5.70;;;7.00;96.80;;;;;;5091271;28;20079;-76
2022/01/30 10:22:51;;;;;;;22.35;5.18;;;7.00;96.40;;;;;;5088261;28;20059;-76
2022/01/30 10:25:19;;;;;;;27.90;6.28;;;7.00;93.40;;;;;;5091901;28;20484;-73
2022/01/30 10:27:45;;;;;;;23.65;4.40;;;7.10;94.20;;;;;;5087185;28;20040;-73
2022/01/30 10:30:11;;;;;;;27.13;5.00;;;7.10;96.90;;;;;;5089984;28;20126;-75
2022/01/30 10:32:36;;;;;;;29.30;5.47;;;7.10;97.00;;;;;;5089051;28;20441;-76
2022/01/30 10:35:09;;;;;;;25.48;4.72;;;7.10;96.10;;;;;;5091344;28;20508;-76
2022/01/30 10:37:36;;;;;;;;;;;7.20;96.20;;;;;;5074252;28;20036;-77
2022/01/30 10:40:04;;;;;;;26.15;4.30;;;7.20;96.00;;;;;;5074681;28;19916;-75
2022/01/30 10:42:47;;;;;;;25.60;5.15;;;7.30;95.90;;;;;;5091039;28;20044;-75
2022/01/30 10:45:14;;;;;;;28.30;5.72;;;7.30;95.00;;;;;;5089383;28;20040;-75
2022/01/30 10:47:42;;;;;;;30.63;4.82;;;7.30;96.50;;;;;;5073394;28;20492;-75
2022/01/30 10:50:10;;;;;;;37.95;5.93;;;7.40;96.40;;;;;;5073366;28;20047;-75
2022/01/30 10:52:58;;;;;;;24.40;5.13;;;7.30;97.00;;;;;;5091351;28;20047;-75
2022/01/30 10:55:39;;;;;;;32.97;5.97;;;7.30;97.70;;;;;;5073348;28;20036;-75
2022/01/30 10:58:06;;;;;;;31.38;6.70;;;7.30;99.80;;;;;;5091585;28;20036;-75
2022/01/30 11:00:41;;;;;;;30.95;5.70;;;7.20;98.00;;;;;;5071290;28;20661;-75
2022/01/30 11:03:08;;;;;;;33.30;7.03;;;7.20;99.20;;;;;;5074020;28;20393;-75
2022/01/30 11:05:52;;;;;;;29.23;5.05;;;7.10;99.00;;;;;;5071088;28;20075;-75
2022/01/30 11:08:30;;;;;;;27.88;6.78;;;7.20;99.30;;;;;;5072712;28;20044;-76
2022/01/30 11:11:00;;;;;;;37.22;6.97;;;7.20;99.90;;;;;;5089030;28;20043;-76
2022/01/30 11:13:32;;;;;;;33.65;5.70;;;7.30;98.80;;;;;;5087923;28;20052;-75
2022/01/30 11:16:56;;;;;;;34.05;6.00;;;7.20;98.60;;;;;;5072934;28;20080;-76
2022/01/30 11:18:50;;;;;;;27.75;4.68;;;7.20;96.80;;;;;;5088404;28;20412;-76
2022/01/30 11:21:22;;;;;;;37.00;5.65;;;7.30;96.40;;;;;;5088749;28;20119;-75
2022/01/30 11:23:49;;;;;;;;;;;7.30;96.80;;;;;;5091101;28;20397;-74
2022/01/30 11:26:15;;;;;;;28.30;4.57;;;7.30;94.30;;;;;;5091755;28;20049;-75
2022/01/30 11:28:42;;;;;;;29.33;5.53;;;7.30;96.90;;;;;;5090544;28;20047;-75
2022/01/30 11:31:09;;;;;;;32.60;6.03;;;7.30;95.70;;;;;;5090972;28;20047;-75
2022/01/30 11:33:36;;;;;;;32.92;5.93;;;7.30;96.40;;;;;;5071387;28;20040;-75
2022/01/30 11:36:02;;;;;;;22.23;4.38;;;7.30;94.90;;;;;;5086904;28;20040;-75
2022/01/30 11:38:28;;;;;;;30.15;5.50;;;7.30;94.40;;;;;;5072853;28;20086;-75
2022/01/30 11:41:20;;;;;;;29.58;5.18;;;7.30;94.30;;;;;;5087246;28;20094;-75
2022/01/30 11:44:17;;;;;;;28.42;4.95;;;7.30;93.70;;;;;;5088060;28;20102;-75
2022/01/30 11:46:52;;;;;;;26.60;4.82;;;7.30;93.50;;;;;;5084388;28;20139;-75
2022/01/30 11:49:18;;;;;;;31.05;6.15;;;7.30;95.10;;;;;;5089885;28;20052;-75
2022/01/30 11:51:51;;;;;;;26.65;5.28;;;7.20;91.60;;;;;;5072379;28;20052;-75
2022/01/30 11:54:53;;;;;;;25.15;4.35;;;7.20;95.80;;;;;;5073245;28;20072;-75
2022/01/30 11:57:22;;;;;;;22.60;4.80;;;7.30;95.90;;;;;;5088089;28;20047;-75
2022/01/30 11:59:49;;;;;;;31.38;5.45;;;7.20;96.20;;;;;;5065043;28;20541;-75
2022/01/30 12:02:21;;;;;;;22.38;4.70;;;7.30;97.40;;;;;;5090724;28;20055;-75
2022/01/30 12:04:59;;;;;;;29.55;5.40;;;7.30;96.30;;;;;;5071187;28;20077;-75
2022/01/30 12:07:33;;;;;;;30.50;5.75;;;7.30;94.10;;;;;;5085895;28;20032;-75
2022/01/30 12:10:27;;;;;;;29.73;4.10;;;7.30;95.70;;;;;;5073225;28;20040;-75
2022/01/30 12:13:01;;;;;;;29.10;4.93;;;7.40;95.10;;;;;;5068490;28;20737;-75
2022/01/30 12:15:43;;;;;;;27.13;5.13;;;7.40;96.40;;;;;;5093960;28;20087;-76
2022/01/30 12:18:19;;;;;;;27.10;6.07;;;7.40;95.90;;;;;;5073102;28;20040;-75
2022/01/30 12:20:59;;;;;;;31.40;5.47;;;7.30;95.30;;;;;;5073896;28;20043;-75
2022/01/30 12:23:30;;;;;;;28.40;4.97;;;7.30;96.10;;;;;;5076671;28;20036;-75
2022/01/30 12:26:15;;;;;;;31.85;5.60;;;7.20;95.70;;;;;;5076308;28;20055;-75
2022/01/30 12:28:51;;;;;;;35.20;5.47;;;7.20;96.30;;;;;;5091839;28;20075;-75
2022/01/30 12:31:33;;;;;;;31.13;5.00;;;7.20;98.50;;;;;;5092177;28;20597;-75
2022/01/30 12:34:03;;;;;;;32.65;5.63;;;7.20;98.20;;;;;;5076190;28;20047;-75
2022/01/30 12:36:31;;;;;;;31.98;6.20;;;7.30;98.00;;;;;;5092038;28;20389;-75
2022/01/30 12:39:16;;;;;;;25.90;5.05;;;7.30;97.60;;;;;;5094108;28;20040;-75
2022/01/30 12:41:42;;;;;;;25.55;5.32;;;7.40;97.10;;;;;;5085305;28;20043;-75
2022/01/30 12:44:21;;;;;;;28.23;5.45;;;7.50;99.60;;;;;;5085149;28;20047;-75
2022/01/30 12:46:51;;;;;;;30.13;4.97;;;7.60;99.90;;;;;;5092433;28;20039;-75
2022/01/30 12:49:25;;;;;;;27.40;6.13;;;7.80;98.60;;;;;;5088606;28;20039;-75
2022/01/30 12:51:56;;;;;;;25.83;6.03;;;7.80;98.00;;;;;;5092529;28;20044;-75
2022/01/30 12:54:29;;;;;;;29.48;6.65;;;7.80;98.90;;;;;;5073910;28;20380;-75
2022/01/30 12:56:56;;;;;;;32.75;5.20;;;7.70;96.70;;;;;;5089830;28;20036;-75
2022/01/30 12:59:24;;;;;;;28.80;5.68;;;7.70;97.60;;;;;;5076348;28;20047;-75
2022/01/30 13:01:50;;;;;;;26.65;5.60;;;7.60;97.20;;;;;;5082772;28;20051;-75
2022/01/30 13:04:23;;;;;;;28.10;6.55;;;7.60;97.90;;;;;;5076910;28;20036;-75
2022/01/30 13:06:52;;;;;;;26.00;5.25;;;7.50;92.90;;;;;;5091236;28;20048;-75
2022/01/30 13:09:21;;;;;;;23.02;4.55;;;7.40;93.20;;;;;;5073665;28;20458;-75
2022/01/30 13:11:51;;;;;;;26.30;4.60;;;7.20;93.40;;;;;;5064874;28;20458;-75
2022/01/30 13:14:17;;;;;;;29.67;5.38;;;7.10;94.10;;;;;;5092949;28;20053;-76
2022/01/30 13:16:49;;;;;;;22.70;4.55;;;7.10;93.80;;;;;;5093144;28;20032;-75
2022/01/30 13:19:27;;;;;;;28.92;5.60;;;7.10;93.30;;;;;;5070789;28;20055;-75
2022/01/30 13:21:53;;;;;;;22.65;4.90;;;7.10;95.40;;;;;;5091444;28;20488;-75
2022/01/30 13:24:19;;;;;;;26.83;5.28;;;7.10;95.20;;;;;;5092592;28;20048;-76
2022/01/30 13:26:46;;;;;;;20.77;4.68;;;7.10;96.20;;;;;;5093000;28;20493;-75
2022/01/30 13:29:16;;;;;;;25.83;4.80;;;7.20;96.00;;;;;;5076222;28;20040;-75
2022/01/30 13:31:45;;;;;;;30.13;5.10;;;7.30;95.90;;;;;;5089910;28;20032;-76
2022/01/30 13:34:12;;;;;;;23.25;4.68;;;7.30;95.30;;;;;;5091820;28;20043;-76
2022/01/30 13:36:39;;;;;;;28.02;6.10;;;7.30;95.40;;;;;;5091568;28;20051;-75
2022/01/30 13:39:10;;;;;;;25.27;4.47;;;7.30;97.00;;;;;;5076154;28;20162;-76
2022/01/30 13:41:45;;;;;;;27.95;4.80;;;7.30;95.80;;;;;;5074229;28;20145;-76
2022/01/30 13:44:22;;;;;;;28.13;5.25;;;7.30;97.50;;;;;;5092657;28;20429;-76